Time;durP1;ratioP1;P1;durP2;ratioP2;P2;SDS_P1;SDS_P2;PMS_P1;PMS_P2;Temp;Humidity;BMP_temperature;BMP_pressure;BME280_temperature;BME280_humidity;BME280_pressure;Samples;Min_cycle;Max_cycle;Signal;HPM_P1;HPM_P2
2022/06/26 00:00:05;;;;;;;3.47;2.78;;;23.10;94.10;;;;;;4987129;28;20054;-83
2022/06/26 00:02:31;;;;;;;6.47;2.97;;;23.10;94.50;;;;;;4980525;28;20030;-82
2022/06/26 00:04:56;;;;;;;5.22;3.13;;;23.00;94.30;;;;;;4975180;28;20033;-85
2022/06/26 00:07:22;;;;;;;4.53;2.95;;;23.00;94.40;;;;;;4985655;28;20034;-82
2022/06/26 00:09:47;;;;;;;4.82;2.92;;;22.90;94.50;;;;;;4984318;28;20112;-82
2022/06/26 00:12:13;;;;;;;5.82;3.30;;;22.90;94.60;;;;;;4971758;28;20400;-82
2022/06/26 00:14:38;;;;;;;4.03;3.35;;;22.80;94.70;;;;;;4973126;28;20158;-82
2022/06/26 00:17:04;;;;;;;4.40;3.28;;;22.80;94.80;;;;;;4977596;28;20689;-83
2022/06/26 00:19:30;;;;;;;4.93;3.08;;;22.70;94.80;;;;;;4986277;28;20034;-82
2022/06/26 00:21:55;;;;;;;3.83;2.78;;;22.70;94.90;;;;;;4988838;28;20532;-82
2022/06/26 00:24:20;;;;;;;4.38;3.25;;;22.60;95.00;;;;;;4982265;28;20027;-83
2022/06/26 00:26:46;;;;;;;3.05;2.80;;;22.60;95.20;;;;;;4983859;28;20045;-83
2022/06/26 00:29:12;;;;;;;5.60;3.70;;;22.60;95.30;;;;;;4985828;28;20450;-83
2022/06/26 00:31:37;;;;;;;4.68;3.97;;;22.50;95.40;;;;;;4985232;28;20046;-82
2022/06/26 00:34:03;;;;;;;4.85;3.75;;;22.50;95.50;;;;;;4983502;28;20058;-82
2022/06/26 00:36:29;;;;;;;4.88;4.05;;;22.40;95.60;;;;;;4982467;28;20052;-84
2022/06/26 00:38:55;;;;;;;4.25;3.60;;;22.40;95.70;;;;;;4981751;28;20034;-83
2022/06/26 00:41:20;;;;;;;6.25;3.47;;;22.30;95.70;;;;;;4986463;28;20467;-84
2022/06/26 00:43:46;;;;;;;5.45;3.90;;;22.30;95.90;;;;;;4978288;28;20035;-85
2022/06/26 00:46:11;;;;;;;4.25;3.85;;;22.20;96.00;;;;;;4977350;28;20038;-81
2022/06/26 00:48:37;;;;;;;3.60;3.30;;;22.20;96.10;;;;;;4980754;28;20096;-83
2022/06/26 00:51:03;;;;;;;7.10;4.00;;;22.10;96.20;;;;;;4990135;28;20092;-84
2022/06/26 00:53:29;;;;;;;4.85;3.80;;;22.10;96.30;;;;;;4979056;28;20495;-85
2022/06/26 00:55:55;;;;;;;4.22;3.85;;;22.00;96.30;;;;;;4976610;28;20100;-84
2022/06/26 00:58:20;;;;;;;4.38;3.63;;;22.00;96.40;;;;;;4984890;28;20034;-82
2022/06/26 01:00:46;;;;;;;4.32;3.28;;;22.00;96.50;;;;;;4983935;28;20041;-85
2022/06/26 01:03:11;;;;;;;4.70;3.72;;;21.90;96.50;;;;;;4987845;28;20079;-82
2022/06/26 01:05:39;;;;;;;5.88;3.88;;;21.90;96.60;;;;;;4986231;28;20616;-81
2022/06/26 01:08:06;;;;;;;6.32;4.15;;;21.90;96.70;;;;;;4994798;28;20466;-80
2022/06/26 01:10:31;;;;;;;4.15;3.35;;;21.80;96.70;;;;;;4997536;28;20059;-80
2022/06/26 01:13:02;;;;;;;3.67;3.33;;;21.80;96.70;;;;;;4981615;28;20100;-81
2022/06/26 01:15:27;;;;;;;4.00;3.60;;;21.80;96.80;;;;;;4975410;28;20038;-82
2022/06/26 01:17:54;;;;;;;7.45;3.60;;;21.70;96.90;;;;;;4985803;28;20049;-82
2022/06/26 01:20:20;;;;;;;4.18;3.78;;;21.70;97.00;;;;;;4982456;28;20038;-85
2022/06/26 01:23:04;;;;;;;7.00;4.20;;;21.60;97.10;;;;;;4983031;28;20506;-82
2022/06/26 01:25:47;;;;;;;4.88;3.83;;;21.60;97.20;;;;;;4979610;28;20030;-82
2022/06/26 01:28:14;;;;;;;7.72;4.28;;;21.50;97.30;;;;;;4983171;28;20031;-84
2022/06/26 01:30:39;;;;;;;5.75;3.97;;;21.50;97.30;;;;;;4983521;28;20654;-83
2022/06/26 01:33:06;;;;;;;5.50;3.67;;;21.40;97.40;;;;;;4976132;28;20054;-84
2022/06/26 01:35:32;;;;;;;4.70;3.95;;;21.40;97.50;;;;;;4984919;28;20036;-81
2022/06/26 01:38:08;;;;;;;5.65;3.95;;;21.30;97.60;;;;;;4991172;28;20040;-85
2022/06/26 01:40:34;;;;;;;4.05;3.55;;;21.30;97.70;;;;;;4986241;28;20088;-84
2022/06/26 01:43:00;;;;;;;4.60;3.90;;;21.30;97.90;;;;;;4981786;28;20031;-83
2022/06/26 01:45:25;;;;;;;4.20;3.60;;;21.20;97.90;;;;;;4973710;28;20058;-81
2022/06/26 01:47:52;;;;;;;4.32;3.92;;;21.20;97.90;;;;;;4985846;28;20124;-80
2022/06/26 01:50:18;;;;;;;6.30;3.95;;;21.20;98.00;;;;;;4976491;28;20063;-84
2022/06/26 01:52:44;;;;;;;4.97;4.20;;;21.10;98.00;;;;;;4976615;28;20042;-83
2022/06/26 01:55:09;;;;;;;5.47;3.60;;;21.10;98.10;;;;;;4993975;28;20030;-85
2022/06/26 01:57:35;;;;;;;5.90;4.45;;;21.10;98.20;;;;;;4993180;28;20038;-81
2022/06/26 02:00:00;;;;;;;5.47;4.25;;;21.10;98.30;;;;;;4987359;28;20105;-83
2022/06/26 02:02:26;;;;;;;5.15;3.90;;;21.00;98.30;;;;;;4979447;28;20649;-84
2022/06/26 02:04:51;;;;;;;5.30;4.68;;;21.00;98.40;;;;;;4983433;28;20019;-83
2022/06/26 02:07:17;;;;;;;4.68;4.05;;;21.00;98.50;;;;;;4982276;28;20030;-81
2022/06/26 02:15:10;;;;;;;4.43;4.00;;;20.90;98.60;;;;;;4979078;28;20029;-84
2022/06/26 02:17:36;;;;;;;6.70;4.25;;;20.90;98.70;;;;;;4972828;28;20031;-81
2022/06/26 02:20:02;;;;;;;4.93;3.70;;;20.90;98.70;;;;;;4973025;28;20073;-82
2022/06/26 02:22:27;;;;;;;5.25;4.60;;;20.90;98.80;;;;;;4981262;28;20151;-82
2022/06/26 02:24:52;;;;;;;4.95;4.05;;;20.90;98.90;;;;;;4992176;28;20108;-81
2022/06/26 02:27:18;;;;;;;5.68;4.15;;;20.90;98.90;;;;;;4986443;28;20066;-83
2022/06/26 02:29:43;;;;;;;7.78;4.85;;;20.90;98.90;;;;;;4974163;28;20479;-84
2022/06/26 02:32:09;;;;;;;5.00;4.50;;;20.90;99.00;;;;;;4976807;28;20062;-84
2022/06/26 02:34:34;;;;;;;6.10;4.82;;;20.90;99.00;;;;;;4983713;28;20042;-83
2022/06/26 02:37:00;;;;;;;5.22;4.65;;;20.80;99.00;;;;;;4985438;28;20041;-82
2022/06/26 02:39:25;;;;;;;5.15;4.28;;;20.80;99.00;;;;;;4977010;28;20030;-80
2022/06/26 02:41:51;;;;;;;6.05;4.78;;;20.80;99.10;;;;;;4982769;28;20034;-85
2022/06/26 02:44:16;;;;;;;6.63;5.13;;;20.80;99.10;;;;;;4976137;28;20027;-84
2022/06/26 02:46:42;;;;;;;5.75;4.70;;;20.70;99.10;;;;;;4991218;28;20459;-82
2022/06/26 02:49:07;;;;;;;5.15;4.57;;;20.70;99.20;;;;;;4985210;28;20443;-82
2022/06/26 02:51:33;;;;;;;4.93;4.45;;;20.70;99.30;;;;;;4974295;28;20134;-81
2022/06/26 02:53:58;;;;;;;4.75;4.35;;;20.70;99.30;;;;;;4979023;28;20082;-85
2022/06/26 02:56:24;;;;;;;4.65;4.25;;;20.70;99.30;;;;;;4989446;28;20369;-83
2022/06/26 02:58:49;;;;;;;5.70;5.00;;;20.60;99.40;;;;;;4990778;28;20069;-83
2022/06/26 03:01:15;;;;;;;5.15;4.53;;;20.60;99.40;;;;;;4991362;28;20041;-80
2022/06/26 03:03:40;;;;;;;5.60;5.03;;;20.60;99.40;;;;;;4978467;28;20502;-83
2022/06/26 03:06:06;;;;;;;5.32;4.82;;;20.70;99.50;;;;;;4982706;28;20088;-85
2022/06/26 03:08:31;;;;;;;5.00;4.57;;;20.70;99.60;;;;;;4990558;28;20109;-82
2022/06/26 03:10:57;;;;;;;6.38;5.50;;;20.70;99.60;;;;;;4990753;28;20066;-83
2022/06/26 03:13:22;;;;;;;5.95;5.15;;;20.70;99.70;;;;;;4972742;28;20047;-83
2022/06/26 03:15:48;;;;;;;5.40;4.90;;;20.80;99.70;;;;;;4998017;28;20026;-81
2022/06/26 03:18:13;;;;;;;6.22;5.63;;;20.80;99.70;;;;;;4988973;28;20138;-82
2022/06/26 03:20:40;;;;;;;5.40;4.90;;;20.80;99.70;;;;;;4992075;28;20395;-82
2022/06/26 03:23:05;;;;;;;6.50;5.90;;;20.90;99.70;;;;;;4981738;28;20531;-82
2022/06/26 03:25:31;;;;;;;8.02;5.47;;;20.90;99.70;;;;;;4978422;28;20109;-84
2022/06/26 03:27:56;;;;;;;6.22;5.05;;;20.90;99.60;;;;;;4981377;28;20042;-84
2022/06/26 03:30:22;;;;;;;6.25;5.65;;;21.00;99.60;;;;;;4988809;28;20039;-82
2022/06/26 03:32:47;;;;;;;6.13;5.45;;;21.00;99.60;;;;;;4983076;28;20038;-81
2022/06/26 03:35:13;;;;;;;6.07;5.57;;;21.10;99.60;;;;;;4982293;28;20453;-81
2022/06/26 03:37:38;;;;;;;5.30;4.80;;;21.10;99.50;;;;;;4983678;28;20065;-83
2022/06/26 03:40:04;;;;;;;5.65;4.63;;;21.10;99.40;;;;;;4978502;28;20023;-84
2022/06/26 03:42:30;;;;;;;6.00;5.20;;;21.20;99.30;;;;;;4981214;28;20085;-81
2022/06/26 03:44:56;;;;;;;5.50;5.00;;;21.20;99.30;;;;;;4985437;28;20031;-83
2022/06/26 03:47:21;;;;;;;5.65;5.15;;;21.20;99.30;;;;;;4980714;28;20480;-82
2022/06/26 03:49:47;;;;;;;5.88;5.38;;;21.30;99.30;;;;;;4975305;28;20038;-81
2022/06/26 03:52:12;;;;;;;5.97;4.75;;;21.30;99.20;;;;;;4986936;28;20072;-84
2022/06/26 03:54:38;;;;;;;6.70;5.20;;;21.30;99.10;;;;;;4980643;28;20053;-80
2022/06/26 03:57:04;;;;;;;5.57;4.72;;;21.30;99.00;;;;;;4986790;28;20138;-82
2022/06/26 03:59:30;;;;;;;5.13;4.63;;;21.40;99.00;;;;;;4989273;28;20033;-84
2022/06/26 04:01:55;;;;;;;8.45;5.00;;;21.40;98.80;;;;;;5009577;28;20392;-80
2022/06/26 04:04:21;;;;;;;5.47;4.85;;;21.40;98.70;;;;;;4988526;28;20045;-82
2022/06/26 04:06:46;;;;;;;5.65;4.70;;;21.50;98.50;;;;;;4977588;28;20030;-81
2022/06/26 04:09:12;;;;;;;5.95;4.70;;;21.50;98.40;;;;;;4973682;28;20485;-82
2022/06/26 04:11:37;;;;;;;5.03;4.25;;;21.60;98.30;;;;;;4991089;28;20237;-85
2022/06/26 04:14:03;;;;;;;5.10;4.20;;;21.60;98.30;;;;;;4975458;28;20165;-83
2022/06/26 04:16:28;;;;;;;4.60;4.20;;;21.60;98.20;;;;;;4988247;28;20046;-80
2022/06/26 04:18:54;;;;;;;4.43;4.03;;;21.70;98.20;;;;;;5009160;28;20038;-81
2022/06/26 04:21:19;;;;;;;6.68;4.00;;;21.70;98.10;;;;;;4995536;28;20022;-84
2022/06/26 04:23:45;;;;;;;8.68;4.50;;;21.80;98.00;;;;;;4993431;28;20061;-83
2022/06/26 04:26:10;;;;;;;4.70;4.30;;;21.80;97.80;;;;;;4991093;28;20031;-81
2022/06/26 04:28:36;;;;;;;4.35;3.95;;;21.80;97.70;;;;;;4991677;28;20038;-83
2022/06/26 04:31:02;;;;;;;4.35;3.92;;;21.90;97.60;;;;;;4990879;28;20034;-82
2022/06/26 04:33:27;;;;;;;3.95;3.65;;;21.90;97.50;;;;;;4990288;28;20031;-83
2022/06/26 04:35:54;;;;;;;4.57;3.90;;;22.00;97.40;;;;;;4987061;28;20109;-83
2022/06/26 04:38:19;;;;;;;4.05;3.35;;;22.00;97.30;;;;;;5006048;28;20498;-82
2022/06/26 04:40:46;;;;;;;5.00;3.70;;;22.10;97.10;;;;;;4989586;28;20038;-84
2022/06/26 04:43:11;;;;;;;3.55;3.25;;;22.20;97.00;;;;;;4990406;28;20180;-84
2022/06/26 04:45:37;;;;;;;3.58;3.25;;;22.30;97.00;;;;;;4987056;28;20117;-85
2022/06/26 04:48:03;;;;;;;3.50;3.17;;;22.30;96.90;;;;;;4982894;28;20178;-81
2022/06/26 04:50:28;;;;;;;4.75;3.83;;;22.50;96.90;;;;;;4982540;28;20471;-82
2022/06/26 04:52:54;;;;;;;5.50;3.80;;;22.60;96.50;;;;;;4986926;28;20743;-82
2022/06/26 04:55:19;;;;;;;4.05;3.30;;;22.70;96.40;;;;;;4989747;28;20058;-84
2022/06/26 04:57:45;;;;;;;4.03;3.35;;;22.80;96.50;;;;;;4973991;28;20081;-83
2022/06/26 05:00:13;;;;;;;6.13;3.58;;;22.90;96.20;;;;;;4977752;28;20472;-85
2022/06/26 05:02:39;;;;;;;3.42;2.67;;;23.00;95.90;;;;;;4979650;28;20022;-81
2022/06/26 05:05:05;;;;;;;2.58;2.38;;;23.10;95.50;;;;;;4989493;28;20100;-81
2022/06/26 05:07:31;;;;;;;4.65;3.28;;;23.20;95.30;;;;;;4990340;28;20033;-86
2022/06/26 05:09:57;;;;;;;3.50;2.83;;;23.30;94.80;;;;;;4993567;28;20043;-84
2022/06/26 05:12:22;;;;;;;3.28;2.78;;;23.40;94.50;;;;;;4980651;28;20270;-84
2022/06/26 05:14:48;;;;;;;3.22;2.92;;;23.50;94.50;;;;;;4983713;28;20042;-83
2022/06/26 05:17:13;;;;;;;2.55;2.22;;;23.50;94.50;;;;;;4977682;28;20106;-84
2022/06/26 05:19:39;;;;;;;2.97;2.28;;;23.60;94.40;;;;;;4981645;28;20037;-81
2022/06/26 05:22:05;;;;;;;4.00;2.42;;;23.70;94.30;;;;;;4987696;28;20030;-84
2022/06/26 05:24:30;;;;;;;2.88;2.58;;;23.80;94.00;;;;;;4985505;28;20117;-83
2022/06/26 05:26:58;;;;;;;2.72;2.38;;;23.90;94.00;;;;;;4980914;28;20027;-83
2022/06/26 05:29:24;;;;;;;2.42;2.17;;;24.00;93.90;;;;;;4972152;28;20035;-81
2022/06/26 05:31:50;;;;;;;3.22;2.38;;;24.10;93.80;;;;;;4979608;28;20026;-81
2022/06/26 05:34:16;;;;;;;2.72;2.10;;;24.10;93.70;;;;;;4987368;28;20033;-84
2022/06/26 05:36:41;;;;;;;3.03;2.53;;;24.30;93.50;;;;;;4982323;28;20125;-81
2022/06/26 05:39:07;;;;;;;3.30;2.72;;;24.30;93.30;;;;;;4985062;28;20414;-83
2022/06/26 05:41:32;;;;;;;2.78;2.58;;;24.40;92.90;;;;;;4986392;28;20034;-83
2022/06/26 05:43:58;;;;;;;3.38;2.35;;;24.40;92.80;;;;;;4974845;28;20031;-84
2022/06/26 05:46:24;;;;;;;2.45;2.05;;;24.40;92.70;;;;;;4984841;28;20045;-80
2022/06/26 05:48:49;;;;;;;2.65;2.10;;;24.40;92.60;;;;;;4977246;28;20920;-82
2022/06/26 05:51:15;;;;;;;2.67;2.42;;;24.40;92.50;;;;;;4973020;28;20127;-84
2022/06/26 05:53:40;;;;;;;3.40;2.10;;;24.40;92.30;;;;;;4986665;28;20241;-81
2022/06/26 05:56:06;;;;;;;3.45;2.75;;;24.40;92.30;;;;;;4976321;28;20109;-83
2022/06/26 05:58:31;;;;;;;1.70;1.52;;;24.40;92.50;;;;;;4978468;28;20042;-80
2022/06/26 06:00:57;;;;;;;3.63;2.10;;;24.40;92.20;;;;;;4982900;28;20034;-80
2022/06/26 06:03:22;;;;;;;2.20;2.00;;;24.50;92.30;;;;;;4977587;28;20229;-80
2022/06/26 06:05:49;;;;;;;5.43;2.08;;;24.50;92.10;;;;;;4981330;28;20078;-80
2022/06/26 06:08:15;;;;;;;3.25;1.65;;;24.50;92.00;;;;;;4976544;28;20102;-81
2022/06/26 06:10:40;;;;;;;4.60;2.47;;;24.60;91.90;;;;;;4984892;28;20027;-79
2022/06/26 06:13:06;;;;;;;2.50;2.20;;;24.70;92.00;;;;;;4989390;28;20037;-79
2022/06/26 06:15:31;;;;;;;1.98;1.65;;;24.70;91.90;;;;;;4989220;28;20439;-80
2022/06/26 06:17:57;;;;;;;2.97;2.00;;;24.80;91.80;;;;;;4983139;28;20037;-80
2022/06/26 06:20:25;;;;;;;2.50;1.90;;;24.80;91.60;;;;;;4992391;28;20510;-78
2022/06/26 06:22:54;;;;;;;3.45;2.00;;;24.90;91.70;;;;;;4988387;28;20041;-79
2022/06/26 06:25:21;;;;;;;2.33;2.00;;;24.90;91.30;;;;;;4975946;28;20082;-79
2022/06/26 06:27:50;;;;;;;2.05;1.85;;;25.00;91.20;;;;;;5004324;28;20402;-81
2022/06/26 06:30:16;;;;;;;2.65;2.45;;;25.20;90.90;;;;;;4986029;28;20034;-81
2022/06/26 06:32:42;;;;;;;2.63;2.15;;;25.40;90.90;;;;;;4987764;28;20030;-80
2022/06/26 06:35:11;;;;;;;2.85;2.00;;;25.50;90.80;;;;;;4989452;28;20106;-80
2022/06/26 06:37:36;;;;;;;1.85;1.65;;;25.60;90.60;;;;;;4983694;28;20049;-79
2022/06/26 06:40:02;;;;;;;3.67;1.80;;;25.60;90.60;;;;;;4981425;28;20094;-80
2022/06/26 06:42:28;;;;;;;2.88;1.88;;;25.60;90.50;;;;;;4984782;28;20042;-80
2022/06/26 06:44:53;;;;;;;2.83;1.98;;;25.70;90.30;;;;;;4989091;28;20065;-81
2022/06/26 06:47:19;;;;;;;4.45;2.40;;;25.70;90.30;;;;;;4992958;28;20034;-79
2022/06/26 06:49:44;;;;;;;1.95;1.55;;;25.80;90.30;;;;;;4984868;28;20069;-82
2022/06/26 06:52:10;;;;;;;2.17;1.80;;;25.70;90.40;;;;;;4987214;28;20643;-81
2022/06/26 06:54:36;;;;;;;2.45;1.88;;;25.80;90.40;;;;;;4990014;28;20057;-80
2022/06/26 06:57:01;;;;;;;3.70;2.13;;;25.90;90.20;;;;;;4988025;28;20045;-78
2022/06/26 06:59:27;;;;;;;2.47;1.95;;;26.00;90.30;;;;;;4985968;28;20043;-82
2022/06/26 07:01:53;;;;;;;4.63;1.60;;;26.20;89.90;;;;;;4988998;28;20076;-78
2022/06/26 07:04:19;;;;;;;2.45;1.95;;;26.30;88.90;;;;;;5001053;28;20033;-79
2022/06/26 07:06:45;;;;;;;4.10;1.90;;;26.40;89.20;;;;;;4992907;28;20043;-80
2022/06/26 07:09:11;;;;;;;2.88;2.05;;;26.50;88.80;;;;;;4989440;28;20073;-80
2022/06/26 07:11:37;;;;;;;2.22;2.03;;;26.70;89.50;;;;;;4995081;28;20030;-78
2022/06/26 07:14:03;;;;;;;3.10;1.63;;;26.80;88.60;;;;;;4992769;28;20083;-79
2022/06/26 07:16:28;;;;;;;3.88;1.77;;;26.90;87.50;;;;;;4990488;28;20039;-78
2022/06/26 07:18:54;;;;;;;3.72;1.75;;;27.00;86.90;;;;;;4991291;28;20034;-79
2022/06/26 07:21:20;;;;;;;3.08;1.50;;;27.10;86.10;;;;;;4987170;28;20026;-82
2022/06/26 07:23:46;;;;;;;6.05;2.10;;;27.10;86.60;;;;;;4986834;28;20033;-79
2022/06/26 07:26:11;;;;;;;5.65;1.60;;;27.20;87.30;;;;;;4990884;28;20507;-79
2022/06/26 07:28:37;;;;;;;3.80;1.80;;;27.20;85.00;;;;;;4994856;28;20061;-79
2022/06/26 07:31:03;;;;;;;6.20;1.50;;;27.30;85.80;;;;;;4993941;28;20045;-79
2022/06/26 07:36:12;;;;;;;4.72;1.83;;;27.40;85.70;;;;;;4986038;28;20068;-79
2022/06/26 07:38:38;;;;;;;2.63;1.45;;;27.60;85.40;;;;;;4989714;28;20039;-79
2022/06/26 07:41:04;;;;;;;1.80;1.38;;;27.60;84.50;;;;;;4984741;28;20035;-79
2022/06/26 07:43:30;;;;;;;1.88;1.48;;;27.80;84.70;;;;;;4983415;28;20218;-80
2022/06/26 07:45:56;;;;;;;1.88;1.50;;;27.90;83.30;;;;;;4987026;28;20100;-80
2022/06/26 07:48:21;;;;;;;3.65;1.92;;;28.10;82.80;;;;;;4981701;28;20049;-80
2022/06/26 07:50:47;;;;;;;2.22;1.92;;;28.10;82.80;;;;;;4985009;28;20387;-80
2022/06/26 07:53:13;;;;;;;3.25;1.80;;;28.30;83.10;;;;;;4985292;28;20034;-80
2022/06/26 07:55:39;;;;;;;2.65;1.60;;;28.50;82.70;;;;;;4977681;28;20030;-82
2022/06/26 07:58:04;;;;;;;1.75;1.20;;;28.70;80.60;;;;;;4987844;28;20052;-82
2022/06/26 08:00:30;;;;;;;2.42;1.20;;;28.80;81.60;;;;;;4991561;28;20041;-81
2022/06/26 08:03:03;;;;;;;1.38;1.20;;;28.90;78.60;;;;;;4983319;28;20035;-83
2022/06/26 08:05:29;;;;;;;5.20;1.02;;;29.10;79.10;;;;;;5003132;28;20113;-82
2022/06/26 08:07:54;;;;;;;1.45;1.02;;;29.20;79.50;;;;;;4984734;28;20085;-82
2022/06/26 08:10:20;;;;;;;2.63;1.40;;;29.40;79.30;;;;;;4992374;28;20038;-85
2022/06/26 08:12:45;;;;;;;2.42;1.05;;;29.60;76.20;;;;;;5009975;28;20033;-86
2022/06/26 08:15:11;;;;;;;1.90;1.20;;;29.80;76.20;;;;;;5013842;28;20093;-84
2022/06/26 08:17:36;;;;;;;1.88;0.98;;;29.90;75.10;;;;;;4987140;28;20030;-85
2022/06/26 08:20:02;;;;;;;2.17;1.40;;;30.00;75.20;;;;;;4992468;28;20041;-83
2022/06/26 08:22:28;;;;;;;2.33;1.20;;;30.00;74.90;;;;;;4979168;28;20030;-82
2022/06/26 08:24:53;;;;;;;1.88;1.58;;;30.10;75.80;;;;;;4979142;28;20039;-81
2022/06/26 08:27:19;;;;;;;2.42;1.52;;;30.20;76.50;;;;;;4982537;28;20031;-81
2022/06/26 08:29:45;;;;;;;2.17;1.33;;;30.40;77.40;;;;;;4991882;28;20112;-82
2022/06/26 08:32:10;;;;;;;3.53;1.30;;;30.50;74.90;;;;;;4987918;28;20472;-82
2022/06/26 08:34:36;;;;;;;1.83;1.27;;;30.60;74.10;;;;;;4985615;28;20534;-80
2022/06/26 08:37:01;;;;;;;1.60;1.50;;;30.70;77.40;;;;;;4980181;28;20117;-80
2022/06/26 08:39:26;;;;;;;2.05;1.13;;;30.90;73.30;;;;;;4990953;28;20093;-80
2022/06/26 08:41:54;;;;;;;1.75;1.20;;;30.90;72.70;;;;;;4987372;28;20069;-80
2022/06/26 08:44:20;;;;;;;1.95;1.30;;;31.00;74.10;;;;;;4987439;28;20030;-80
2022/06/26 08:46:46;;;;;;;1.05;0.95;;;31.10;70.30;;;;;;4995340;28;20042;-82
2022/06/26 08:49:19;;;;;;;1.10;0.90;;;31.20;69.70;;;;;;4974969;28;20039;-81
2022/06/26 08:51:46;;;;;;;1.95;1.15;;;31.20;69.20;;;;;;4986604;28;20046;-82
2022/06/26 08:54:13;;;;;;;1.80;1.17;;;31.10;70.00;;;;;;5005064;28;20018;-81
2022/06/26 08:56:44;;;;;;;1.23;1.00;;;31.10;70.30;;;;;;4989164;28;20085;-81
2022/06/26 08:59:18;;;;;;;5.85;1.10;;;31.10;69.40;;;;;;4982202;28;20066;-81
2022/06/26 09:01:44;;;;;;;1.33;1.10;;;31.20;69.90;;;;;;4989086;28;20048;-81
2022/06/26 09:04:11;;;;;;;2.15;1.30;;;31.30;68.80;;;;;;4985008;28;20038;-81
2022/06/26 09:06:38;;;;;;;2.38;0.82;;;31.40;66.80;;;;;;4997109;28;20080;-81
2022/06/26 09:09:17;;;;;;;1.20;1.00;;;31.50;67.90;;;;;;4987563;28;20043;-82
2022/06/26 09:11:44;;;;;;;2.72;1.10;;;31.50;66.60;;;;;;4980560;28;20062;-81
2022/06/26 09:14:12;;;;;;;3.28;1.25;;;31.60;67.70;;;;;;4983028;28;20504;-81
2022/06/26 09:16:39;;;;;;;0.98;0.80;;;31.80;67.30;;;;;;4983567;28;20062;-82
2022/06/26 09:19:07;;;;;;;3.42;0.80;;;31.90;68.10;;;;;;4986992;28;20453;-81
2022/06/26 09:21:33;;;;;;;2.22;1.00;;;32.10;65.60;;;;;;4985186;28;20038;-82
2022/06/26 09:23:58;;;;;;;0.77;0.47;;;32.30;63.30;;;;;;4986686;28;20057;-82
2022/06/26 09:26:24;;;;;;;4.68;0.90;;;32.40;61.40;;;;;;4984537;28;20031;-82
2022/06/26 09:28:49;;;;;;;0.80;0.60;;;32.50;61.60;;;;;;4982752;28;20125;-82
2022/06/26 09:31:20;;;;;;;0.82;0.60;;;32.50;62.80;;;;;;4999972;28;20066;-82
2022/06/26 09:33:45;;;;;;;3.03;0.88;;;32.70;62.10;;;;;;4987364;28;20030;-81
2022/06/26 09:36:15;;;;;;;1.15;0.80;;;32.90;62.80;;;;;;4987823;28;20069;-83
2022/06/26 09:38:50;;;;;;;1.65;0.70;;;33.10;59.40;;;;;;4988179;28;20035;-82
2022/06/26 09:41:16;;;;;;;1.35;0.60;;;33.20;60.60;;;;;;4990946;28;20039;-82
2022/06/26 09:43:44;;;;;;;1.10;0.60;;;33.30;57.50;;;;;;4992582;28;20113;-82
2022/06/26 09:46:14;;;;;;;0.70;0.60;;;33.30;58.50;;;;;;4981126;28;20130;-80
2022/06/26 09:48:41;;;;;;;1.48;0.60;;;33.40;57.10;;;;;;4985482;28;20038;-83
2022/06/26 09:51:09;;;;;;;0.80;0.60;;;33.30;58.00;;;;;;4996094;28;20026;-81
2022/06/26 09:53:35;;;;;;;1.10;0.68;;;33.20;57.80;;;;;;5000952;28;20030;-81
2022/06/26 09:56:01;;;;;;;1.58;0.77;;;33.30;57.70;;;;;;4998733;28;20026;-81
2022/06/26 09:58:28;;;;;;;1.60;0.75;;;33.40;56.30;;;;;;4994197;28;20082;-81
2022/06/26 10:06:29;;;;;;;0.70;0.50;;;33.00;55.10;;;;;;4998230;28;20053;-81
2022/06/26 10:09:00;;;;;;;1.42;0.55;;;33.10;56.50;;;;;;4978951;28;20037;-82
2022/06/26 10:11:29;;;;;;;4.10;0.93;;;33.20;57.70;;;;;;4989104;28;20043;-83
2022/06/26 10:14:17;;;;;;;1.00;0.60;;;33.30;55.90;;;;;;4992054;28;20287;-82
2022/06/26 10:17:29;;;;;;;1.67;0.70;;;33.50;57.50;;;;;;4986548;28;20140;-82
2022/06/26 10:20:01;;;;;;;1.13;0.60;;;33.80;55.90;;;;;;4991930;28;20037;-82
2022/06/26 10:22:37;;;;;;;1.67;0.70;;;34.10;53.40;;;;;;4984707;28;20480;-82
2022/06/26 10:25:05;;;;;;;0.80;0.60;;;34.30;57.60;;;;;;4986431;28;20487;-82
2022/06/26 10:27:33;;;;;;;2.30;0.80;;;34.50;56.00;;;;;;4981338;28;20038;-82
2022/06/26 10:30:14;;;;;;;1.20;0.73;;;34.70;55.30;;;;;;4987546;28;20037;-84
2022/06/26 10:32:42;;;;;;;0.82;0.63;;;34.90;53.00;;;;;;4987878;28;20037;-82
2022/06/26 10:35:09;;;;;;;1.98;0.65;;;35.00;52.20;;;;;;4989329;28;20121;-83
2022/06/26 10:37:49;;;;;;;0.80;0.60;;;34.80;52.90;;;;;;4984486;28;20135;-82
2022/06/26 10:43:08;;;;;;;2.15;0.60;;;34.70;52.60;;;;;;4985070;28;20029;-84
2022/06/26 10:45:40;;;;;;;0.90;0.50;;;34.80;51.50;;;;;;4995663;28;20150;-83
2022/06/26 10:48:17;;;;;;;1.50;0.80;;;34.80;51.90;;;;;;4985603;28;20038;-82
2022/06/26 10:50:45;;;;;;;3.67;0.77;;;34.90;55.70;;;;;;4988765;28;20538;-83
2022/06/26 10:53:14;;;;;;;1.52;0.60;;;35.00;52.00;;;;;;4989166;28;20069;-83
2022/06/26 10:55:42;;;;;;;1.02;0.60;;;35.00;52.20;;;;;;4990995;28;20045;-83
2022/06/26 10:58:08;;;;;;;3.90;0.70;;;35.10;54.40;;;;;;4986058;28;20037;-82
2022/06/26 11:00:33;;;;;;;2.30;0.50;;;35.20;51.50;;;;;;4982641;28;20122;-82
2022/06/26 11:02:59;;;;;;;1.15;0.50;;;35.40;53.40;;;;;;4985771;28;20110;-82
2022/06/26 11:05:28;;;;;;;2.65;0.50;;;35.60;51.30;;;;;;4982138;28;20035;-82
2022/06/26 11:07:53;;;;;;;0.98;0.68;;;35.60;50.30;;;;;;4986222;28;20030;-81
2022/06/26 11:10:24;;;;;;;0.77;0.60;;;35.60;50.20;;;;;;4985613;28;20399;-81
2022/06/26 11:12:52;;;;;;;0.60;0.43;;;35.40;50.40;;;;;;4985214;28;20035;-82
2022/06/26 11:15:23;;;;;;;1.02;0.60;;;35.10;51.60;;;;;;4977922;28;20506;-81
2022/06/26 11:17:59;;;;;;;0.90;0.40;;;34.90;51.50;;;;;;4989525;28;20497;-81
2022/06/26 11:21:08;;;;;;;0.57;0.40;;;34.60;50.70;;;;;;4992349;28;20068;-81
2022/06/26 11:23:29;;;;;;;1.00;0.60;;;34.40;51.50;;;;;;4985376;28;20483;-81
2022/06/26 11:26:03;;;;;;;1.02;0.52;;;34.30;51.50;;;;;;4993757;28;20077;-80
2022/06/26 11:28:30;;;;;;;0.73;0.63;;;34.20;51.20;;;;;;4981990;28;20050;-81
2022/06/26 11:30:57;;;;;;;1.83;0.60;;;33.80;50.70;;;;;;4989144;28;20085;-81
2022/06/26 11:33:28;;;;;;;1.50;0.75;;;33.80;52.20;;;;;;4982146;28;20035;-81
2022/06/26 11:35:55;;;;;;;0.50;0.50;;;33.80;51.40;;;;;;4975334;28;20058;-81
2022/06/26 11:38:22;;;;;;;0.98;0.60;;;33.80;50.50;;;;;;4979190;28;20113;-82
2022/06/26 11:40:49;;;;;;;1.08;0.55;;;33.70;51.40;;;;;;4991754;28;20449;-82
2022/06/26 11:43:15;;;;;;;1.15;0.60;;;33.60;51.70;;;;;;4989599;28;20041;-82
2022/06/26 11:45:43;;;;;;;1.48;0.70;;;33.50;53.70;;;;;;4973667;28;20046;-83
2022/06/26 11:48:13;;;;;;;1.35;0.60;;;33.70;52.70;;;;;;4980819;28;20061;-82
2022/06/26 11:50:39;;;;;;;1.42;0.73;;;33.90;53.50;;;;;;4987859;28;20039;-83
2022/06/26 11:53:06;;;;;;;0.85;0.60;;;34.20;53.20;;;;;;4994634;28;20079;-83
2022/06/26 11:55:33;;;;;;;0.95;0.80;;;34.50;52.70;;;;;;4987808;28;20022;-83
2022/06/26 11:58:02;;;;;;;2.25;0.77;;;34.80;50.70;;;;;;4984511;28;20399;-84
2022/06/26 12:00:27;;;;;;;1.38;0.70;;;35.10;51.80;;;;;;4981852;28;20043;-83
2022/06/26 12:02:53;;;;;;;2.15;0.50;;;35.20;49.90;;;;;;4991727;28;20562;-83
2022/06/26 12:05:27;;;;;;;4.35;0.60;;;35.50;51.30;;;;;;4981587;28;20035;-82
2022/06/26 12:07:53;;;;;;;2.42;0.60;;;35.70;49.50;;;;;;4989192;28;20022;-83
2022/06/26 12:10:36;;;;;;;0.85;0.60;;;35.90;49.60;;;;;;4980456;28;20035;-83
2022/06/26 12:13:03;;;;;;;0.40;0.40;;;36.10;48.30;;;;;;4983101;28;20113;-83
2022/06/26 12:15:34;;;;;;;1.42;0.60;;;36.20;48.80;;;;;;4977670;28;20041;-82
2022/06/26 12:18:01;;;;;;;0.60;0.60;;;36.30;49.20;;;;;;4982664;28;20041;-80
2022/06/26 12:20:34;;;;;;;1.00;0.60;;;36.40;49.40;;;;;;4988506;28;20040;-79
2022/06/26 12:23:00;;;;;;;0.52;0.50;;;36.40;49.10;;;;;;4972126;28;20042;-79
2022/06/26 12:25:31;;;;;;;1.90;0.50;;;36.30;48.10;;;;;;4986098;28;20023;-78
2022/06/26 12:27:57;;;;;;;0.90;0.57;;;36.00;47.50;;;;;;4983493;28;20038;-78
2022/06/26 12:30:26;;;;;;;1.20;0.60;;;35.80;47.10;;;;;;4979133;28;20034;-79
2022/06/26 12:32:53;;;;;;;0.95;0.70;;;35.40;48.40;;;;;;4979025;28;20085;-79
2022/06/26 12:35:18;;;;;;;1.00;0.52;;;35.10;48.30;;;;;;4975724;28;20484;-80
2022/06/26 12:37:44;;;;;;;1.13;0.95;;;34.90;48.00;;;;;;4978877;28;20077;-78
2022/06/26 12:40:12;;;;;;;2.95;0.57;;;34.60;48.70;;;;;;4982395;28;20026;-80
2022/06/26 12:42:37;;;;;;;0.70;0.65;;;34.50;48.50;;;;;;4990089;28;20061;-77
2022/06/26 12:45:03;;;;;;;1.20;0.50;;;34.40;48.00;;;;;;4976856;28;20039;-78
2022/06/26 12:48:07;;;;;;;3.08;0.70;;;34.20;49.10;;;;;;4983882;28;20472;-80
2022/06/26 12:50:39;;;;;;;0.90;0.60;;;33.90;51.40;;;;;;5000102;28;20034;-79
2022/06/26 12:53:21;;;;;;;1.23;0.80;;;33.80;50.90;;;;;;4983309;28;20039;-85
2022/06/26 12:55:47;;;;;;;0.98;0.80;;;33.70;51.30;;;;;;4984788;28;20038;-84
2022/06/26 12:58:13;;;;;;;1.10;0.63;;;33.50;51.10;;;;;;4980920;28;20104;-86
2022/06/26 13:00:38;;;;;;;2.25;0.70;;;33.40;52.00;;;;;;4977269;28;20031;-86
2022/06/26 13:03:04;;;;;;;2.83;0.70;;;33.30;51.90;;;;;;4989141;28;20065;-88